Time;durP1;ratioP1;P1;durP2;ratioP2;P2;SDS_P1;SDS_P2;PMS_P1;PMS_P2;Temp;Humidity;BMP_temperature;BMP_pressure;BME280_temperature;BME280_humidity;BME280_pressure;Samples;Min_cycle;Max_cycle;Signal;HPM_P1;HPM_P2
2020/12/31 00:01:52;;;;;;;7.97;4.97;;;1.60;99.90;;;;;;5041168;28;20441;-48
2020/12/31 00:04:18;;;;;;;7.68;4.75;;;1.60;99.90;;;;;;5039033;28;20029;-47
2020/12/31 00:06:43;;;;;;;11.30;5.25;;;1.60;99.90;;;;;;5040311;28;20116;-48
2020/12/31 00:09:10;;;;;;;10.27;4.90;;;1.70;99.90;;;;;;5043757;28;20025;-48
2020/12/31 00:11:35;;;;;;;8.02;5.47;;;1.80;99.90;;;;;;5042821;28;20116;-46
2020/12/31 00:14:07;;;;;;;9.07;6.43;;;1.80;99.90;;;;;;5047684;28;20214;-45
2020/12/31 00:16:36;;;;;;;7.43;4.90;;;1.90;99.90;;;;;;5043411;28;20025;-46
2020/12/31 00:19:05;;;;;;;10.10;5.60;;;2.00;99.90;;;;;;5043340;28;20097;-45
2020/12/31 00:21:36;;;;;;;9.05;5.22;;;2.00;99.90;;;;;;5049953;28;20407;-52
2020/12/31 00:24:02;;;;;;;6.18;3.78;;;2.10;99.90;;;;;;5034786;28;20033;-46
2020/12/31 00:26:27;;;;;;;8.60;5.05;;;2.10;99.90;;;;;;5036566;28;20048;-51
2020/12/31 00:28:53;;;;;;;7.15;4.88;;;2.20;99.90;;;;;;5041451;28;20048;-46
2020/12/31 00:31:18;;;;;;;7.50;5.20;;;2.20;99.90;;;;;;5035548;28;20486;-48
2020/12/31 00:33:47;;;;;;;7.45;5.20;;;2.20;99.90;;;;;;5037436;28;20043;-50
2020/12/31 00:36:13;;;;;;;9.25;5.50;;;2.30;99.90;;;;;;5045672;28;20071;-49
2020/12/31 00:38:38;;;;;;;8.50;5.03;;;2.30;99.90;;;;;;5042039;28;20025;-46
2020/12/31 00:41:04;;;;;;;6.65;4.53;;;2.30;99.90;;;;;;5038578;28;20029;-46
2020/12/31 00:43:30;;;;;;;10.40;6.25;;;2.30;99.90;;;;;;5036447;28;20037;-47
2020/12/31 00:45:55;;;;;;;8.20;5.32;;;2.30;99.90;;;;;;5034579;28;20040;-46
2020/12/31 00:48:21;;;;;;;7.57;4.95;;;2.30;99.90;;;;;;5038353;28;20488;-46
2020/12/31 00:50:47;;;;;;;9.25;5.20;;;2.30;99.90;;;;;;5033941;28;20049;-48
2020/12/31 00:53:12;;;;;;;8.00;4.50;;;2.30;99.90;;;;;;5034179;28;20046;-46
2020/12/31 00:55:38;;;;;;;10.10;5.75;;;2.20;99.90;;;;;;5053826;28;20130;-50
2020/12/31 00:58:03;;;;;;;7.65;5.22;;;2.20;99.90;;;;;;5042140;28;20032;-48
2020/12/31 01:00:29;;;;;;;7.32;4.53;;;2.20;99.90;;;;;;5036712;28;20032;-44
2020/12/31 01:02:55;;;;;;;8.23;4.85;;;2.20;99.90;;;;;;5051076;28;20028;-45
2020/12/31 01:05:20;;;;;;;8.43;5.35;;;2.30;99.90;;;;;;5054102;28;20394;-53
2020/12/31 01:07:46;;;;;;;7.63;4.65;;;2.30;99.90;;;;;;5037249;28;20017;-43
2020/12/31 01:10:11;;;;;;;7.10;4.28;;;2.30;99.90;;;;;;5043931;28;20037;-46
2020/12/31 01:12:37;;;;;;;8.52;4.07;;;2.30;99.90;;;;;;5042771;28;20111;-46
2020/12/31 01:15:05;;;;;;;9.80;4.97;;;2.40;99.90;;;;;;5045456;28;20033;-45
2020/12/31 01:17:30;;;;;;;7.97;5.65;;;2.40;99.90;;;;;;5042736;28;20029;-46
2020/12/31 01:19:56;;;;;;;6.80;4.53;;;2.40;99.90;;;;;;5040079;28;20036;-46
2020/12/31 01:22:21;;;;;;;8.70;5.47;;;2.40;99.90;;;;;;5038021;28;20033;-46
2020/12/31 01:24:47;;;;;;;9.77;5.55;;;2.50;99.90;;;;;;5037643;28;20040;-46
2020/12/31 01:27:14;;;;;;;8.00;5.35;;;2.50;99.90;;;;;;5040269;28;20029;-44
2020/12/31 01:29:39;;;;;;;7.68;4.78;;;2.50;99.90;;;;;;5040355;28;20029;-47
2020/12/31 01:32:05;;;;;;;9.80;5.97;;;2.50;99.90;;;;;;5035186;28;20464;-45
2020/12/31 01:34:30;;;;;;;8.63;5.10;;;2.50;99.90;;;;;;5046906;28;20018;-44
2020/12/31 01:36:56;;;;;;;11.43;7.22;;;2.60;99.90;;;;;;5040520;28;20037;-42
2020/12/31 01:39:22;;;;;;;8.45;5.85;;;2.60;99.90;;;;;;5038317;28;20029;-43
2020/12/31 01:41:49;;;;;;;7.70;5.32;;;2.50;99.90;;;;;;5037427;28;20389;-44
2020/12/31 01:44:14;;;;;;;7.93;4.50;;;2.50;99.90;;;;;;5040901;28;20030;-42
2020/12/31 01:46:44;;;;;;;9.10;5.38;;;2.50;99.90;;;;;;5035938;28;20033;-44
2020/12/31 01:49:11;;;;;;;7.47;5.70;;;2.50;99.90;;;;;;5038972;28;20052;-43
2020/12/31 01:51:36;;;;;;;9.10;5.85;;;2.50;99.90;;;;;;5036781;28;20120;-42
2020/12/31 01:54:03;;;;;;;7.60;4.60;;;2.40;99.90;;;;;;5039716;28;20446;-44
2020/12/31 01:56:30;;;;;;;9.65;5.40;;;2.50;99.90;;;;;;5033082;28;20029;-44
2020/12/31 01:58:57;;;;;;;9.98;5.32;;;2.40;99.90;;;;;;5037689;28;20092;-45
2020/12/31 02:01:23;;;;;;;8.15;4.95;;;2.50;99.90;;;;;;5035691;28;20430;-46
2020/12/31 02:03:50;;;;;;;7.75;5.30;;;2.50;99.90;;;;;;5038920;28;20036;-43
2020/12/31 02:06:16;;;;;;;10.05;4.90;;;2.50;99.90;;;;;;5036528;28;20045;-43
2020/12/31 02:08:45;;;;;;;8.07;6.15;;;2.50;99.90;;;;;;5035811;28;20502;-43
2020/12/31 02:11:15;;;;;;;7.60;4.63;;;2.50;99.90;;;;;;5033658;28;20485;-42
2020/12/31 02:13:44;;;;;;;9.50;6.20;;;2.50;99.90;;;;;;5034891;28;20405;-45
2020/12/31 02:16:14;;;;;;;9.98;6.07;;;2.60;99.90;;;;;;5035296;28;20037;-44
2020/12/31 02:19:12;;;;;;;11.57;5.75;;;2.60;99.90;;;;;;5039716;28;20025;-44
2020/12/31 02:21:45;;;;;;;7.38;5.20;;;2.60;99.90;;;;;;5045933;28;20032;-44
2020/12/31 02:24:10;;;;;;;9.50;6.70;;;2.60;99.90;;;;;;5038981;28;20032;-48
2020/12/31 02:26:37;;;;;;;11.25;7.72;;;2.60;99.90;;;;;;5046374;28;20512;-44
2020/12/31 02:29:04;;;;;;;8.55;5.55;;;2.60;99.90;;;;;;5038108;28;20092;-45
2020/12/31 02:31:30;;;;;;;9.80;6.07;;;2.60;99.90;;;;;;5047437;28;20044;-46
2020/12/31 02:33:57;;;;;;;9.48;5.43;;;2.60;99.90;;;;;;5041976;28;20430;-43
2020/12/31 02:36:25;;;;;;;11.57;5.55;;;2.60;99.90;;;;;;5034403;28;20053;-45
2020/12/31 02:38:51;;;;;;;10.15;5.38;;;2.60;99.90;;;;;;5039579;28;20026;-44
2020/12/31 02:41:17;;;;;;;6.03;4.20;;;2.60;99.90;;;;;;5038573;28;20033;-44
2020/12/31 02:43:43;;;;;;;8.88;5.85;;;2.60;99.90;;;;;;5037061;28;20025;-44
2020/12/31 02:46:10;;;;;;;8.80;5.82;;;2.50;99.90;;;;;;5035440;28;20498;-43
2020/12/31 02:48:36;;;;;;;8.00;5.10;;;2.60;99.90;;;;;;5049002;28;20394;-43
2020/12/31 02:51:02;;;;;;;7.18;4.68;;;2.60;99.90;;;;;;5041047;28;20034;-44
2020/12/31 02:53:28;;;;;;;7.85;4.70;;;2.50;99.90;;;;;;5037745;28;20028;-43
2020/12/31 02:55:54;;;;;;;8.82;5.10;;;2.50;99.90;;;;;;5043543;28;20490;-45
2020/12/31 02:58:19;;;;;;;7.82;5.90;;;2.60;99.90;;;;;;5048002;28;20025;-46
2020/12/31 03:00:45;;;;;;;10.82;5.65;;;2.60;99.90;;;;;;5045676;28;20075;-43
2020/12/31 03:03:10;;;;;;;10.15;6.72;;;2.50;99.90;;;;;;5042562;28;20029;-46
2020/12/31 03:05:36;;;;;;;10.90;6.10;;;2.60;99.90;;;;;;5041157;28;20041;-44
2020/12/31 03:08:02;;;;;;;9.52;6.25;;;2.50;99.90;;;;;;5046811;28;20037;-45
2020/12/31 03:10:28;;;;;;;9.93;5.75;;;2.50;99.90;;;;;;5038209;28;20148;-45
2020/12/31 03:12:53;;;;;;;7.35;5.00;;;2.60;99.90;;;;;;5039517;28;20021;-45
2020/12/31 03:15:21;;;;;;;9.55;6.10;;;2.50;99.90;;;;;;5041848;28;20040;-45
2020/12/31 03:17:47;;;;;;;8.00;5.38;;;2.50;99.90;;;;;;5035329;28;20021;-52
2020/12/31 03:20:12;;;;;;;7.68;5.20;;;2.50;99.90;;;;;;5040023;28;20041;-44
2020/12/31 03:22:38;;;;;;;8.48;6.03;;;2.50;99.90;;;;;;5040039;28;20049;-43
2020/12/31 03:25:05;;;;;;;6.85;4.32;;;2.50;99.90;;;;;;5042295;28;20382;-47
2020/12/31 03:27:31;;;;;;;7.57;4.50;;;2.50;99.90;;;;;;5037736;28;20413;-44
2020/12/31 03:29:57;;;;;;;9.80;5.75;;;2.50;99.90;;;;;;5036328;28;20028;-46
2020/12/31 03:32:22;;;;;;;8.07;5.20;;;2.50;99.90;;;;;;5032382;28;20040;-47
2020/12/31 03:34:48;;;;;;;8.50;5.18;;;2.50;99.90;;;;;;5037575;28;20033;-45
2020/12/31 03:37:13;;;;;;;7.85;4.85;;;2.50;99.90;;;;;;5035536;28;20037;-46
2020/12/31 03:39:40;;;;;;;6.78;4.22;;;2.50;99.90;;;;;;5039064;28;20029;-42
2020/12/31 03:42:05;;;;;;;9.77;4.95;;;2.50;99.90;;;;;;5038015;28;20037;-44
2020/12/31 03:44:31;;;;;;;8.32;5.03;;;2.50;99.90;;;;;;5037179;28;20032;-43
2020/12/31 03:46:56;;;;;;;6.80;4.38;;;2.40;99.90;;;;;;5034182;28;20029;-45
2020/12/31 03:49:22;;;;;;;8.18;5.43;;;2.40;99.90;;;;;;5042781;28;20125;-46
2020/12/31 03:51:47;;;;;;;10.32;5.93;;;2.40;99.90;;;;;;5044515;28;20042;-47
2020/12/31 03:54:13;;;;;;;8.75;5.28;;;2.40;99.90;;;;;;5035641;28;20037;-46
2020/12/31 03:56:39;;;;;;;6.63;4.40;;;2.50;99.90;;;;;;5046365;28;20030;-46
2020/12/31 03:59:05;;;;;;;7.43;4.93;;;2.40;99.90;;;;;;5041686;28;20059;-46
2020/12/31 04:01:31;;;;;;;9.05;5.30;;;2.40;99.90;;;;;;5040680;28;20497;-42
2020/12/31 04:03:57;;;;;;;9.07;5.90;;;2.40;99.90;;;;;;5046033;28;20033;-44
2020/12/31 04:06:23;;;;;;;8.18;6.07;;;2.40;99.90;;;;;;5045854;28;20022;-43
2020/12/31 04:08:49;;;;;;;8.98;4.97;;;2.40;99.90;;;;;;5042808;28;20083;-43
2020/12/31 04:11:14;;;;;;;7.82;4.50;;;2.40;99.90;;;;;;5043506;28;20029;-45
2020/12/31 04:13:40;;;;;;;6.28;4.82;;;2.40;99.90;;;;;;5040880;28;20079;-45
2020/12/31 04:16:06;;;;;;;6.72;4.78;;;2.40;99.90;;;;;;5038024;28;20053;-45
2020/12/31 04:18:31;;;;;;;8.20;5.28;;;2.40;99.90;;;;;;5040734;28;20071;-48
2020/12/31 04:20:57;;;;;;;10.13;4.68;;;2.40;99.90;;;;;;5046127;28;20075;-47
2020/12/31 04:23:23;;;;;;;8.15;4.07;;;2.40;99.90;;;;;;5038787;28;20397;-48
2020/12/31 04:25:49;;;;;;;9.65;5.55;;;2.40;99.90;;;;;;5038057;28;20108;-46
2020/12/31 04:28:15;;;;;;;6.47;4.30;;;2.40;99.90;;;;;;5039844;28;20096;-45
2020/12/31 04:30:40;;;;;;;7.45;4.82;;;2.40;99.90;;;;;;5035319;28;20449;-46
2020/12/31 04:33:06;;;;;;;6.63;4.18;;;2.40;99.90;;;;;;5039194;28;20029;-48
2020/12/31 04:35:32;;;;;;;7.85;4.60;;;2.40;99.90;;;;;;5040984;28;20013;-48
2020/12/31 04:37:57;;;;;;;7.38;4.38;;;2.40;99.90;;;;;;5040641;28;20026;-43
2020/12/31 04:40:23;;;;;;;7.70;4.65;;;2.40;99.90;;;;;;5036760;28;20053;-46
2020/12/31 04:42:51;;;;;;;8.20;4.45;;;2.50;99.90;;;;;;5037866;28;20375;-45
2020/12/31 04:45:18;;;;;;;9.10;5.65;;;2.50;99.90;;;;;;5041111;28;20025;-48
2020/12/31 04:47:53;;;;;;;7.47;4.20;;;2.50;99.90;;;;;;5041935;28;20520;-46
2020/12/31 04:50:21;;;;;;;8.40;4.90;;;2.50;99.90;;;;;;5043236;28;20067;-46
2020/12/31 04:52:48;;;;;;;9.25;5.78;;;2.60;99.90;;;;;;5032382;28;20136;-44
2020/12/31 04:55:13;;;;;;;8.73;4.97;;;2.60;99.90;;;;;;5034405;28;20021;-47
2020/12/31 04:57:39;;;;;;;7.72;4.88;;;2.70;99.90;;;;;;5037825;28;20032;-46
2020/12/31 05:00:05;;;;;;;9.63;4.93;;;2.70;99.90;;;;;;5032674;28;20094;-45
2020/12/31 05:02:30;;;;;;;5.75;4.18;;;2.70;99.90;;;;;;5033338;28;20025;-50
2020/12/31 05:05:00;;;;;;;8.23;5.60;;;2.70;99.90;;;;;;5035732;28;20041;-44
2020/12/31 05:07:26;;;;;;;12.23;7.40;;;2.70;99.90;;;;;;5036341;28;20087;-45
2020/12/31 05:10:09;;;;;;;10.23;5.45;;;2.70;99.90;;;;;;5035096;28;20496;-44
2020/12/31 05:12:34;;;;;;;7.22;4.75;;;2.70;99.90;;;;;;5034523;28;20425;-45
2020/12/31 05:15:01;;;;;;;10.85;6.25;;;2.70;99.90;;;;;;5033111;28;20025;-45
2020/12/31 05:17:29;;;;;;;9.10;5.57;;;2.70;99.90;;;;;;5035870;28;20055;-46
2020/12/31 05:19:55;;;;;;;8.30;5.07;;;2.70;99.90;;;;;;5039218;28;20036;-45
2020/12/31 05:22:21;;;;;;;10.48;5.38;;;2.70;99.90;;;;;;5031313;28;20037;-48
2020/12/31 05:24:51;;;;;;;7.30;4.60;;;2.70;99.90;;;;;;5043156;28;20393;-47
2020/12/31 05:27:25;;;;;;;9.52;5.20;;;2.70;99.90;;;;;;5037631;28;20021;-44
2020/12/31 05:30:08;;;;;;;7.22;4.72;;;2.70;99.90;;;;;;5032934;28;20509;-46
2020/12/31 05:32:40;;;;;;;6.97;4.00;;;2.70;99.90;;;;;;5035813;28;20120;-44
2020/12/31 05:35:18;;;;;;;7.35;4.78;;;2.70;99.90;;;;;;5037739;28;20026;-44
2020/12/31 05:37:44;;;;;;;8.07;4.47;;;2.70;99.90;;;;;;5042410;28;20033;-45
2020/12/31 05:40:13;;;;;;;9.00;5.65;;;2.80;99.90;;;;;;5045715;28;20090;-42
2020/12/31 05:42:41;;;;;;;8.20;4.55;;;2.80;99.90;;;;;;5040489;28;20036;-44
2020/12/31 05:45:12;;;;;;;10.68;6.07;;;2.80;99.90;;;;;;5037156;28;20101;-43
2020/12/31 05:47:51;;;;;;;9.77;5.55;;;2.80;99.90;;;;;;5040433;28;20116;-47
2020/12/31 05:50:26;;;;;;;9.57;5.13;;;2.80;99.90;;;;;;5044150;28;20071;-44
2020/12/31 05:52:53;;;;;;;8.90;4.93;;;2.80;99.90;;;;;;5046476;28;20079;-46
2020/12/31 05:55:20;;;;;;;9.50;4.95;;;2.80;99.90;;;;;;5041216;28;20021;-47
2020/12/31 05:57:54;;;;;;;6.97;4.70;;;2.80;99.90;;;;;;5041059;28;20876;-44
2020/12/31 06:00:28;;;;;;;9.57;4.80;;;2.60;99.90;;;;;;5037740;28;20028;-42
2020/12/31 06:03:00;;;;;;;9.45;5.82;;;2.50;99.90;;;;;;5037006;28;20021;-46
2020/12/31 06:05:27;;;;;;;7.55;5.05;;;2.40;99.90;;;;;;5034333;28;20048;-42
2020/12/31 06:07:58;;;;;;;9.65;5.40;;;2.20;99.90;;;;;;5038434;28;20112;-45
2020/12/31 06:10:26;;;;;;;12.35;7.75;;;2.10;99.90;;;;;;5038396;28;20033;-44
2020/12/31 06:12:54;;;;;;;10.32;6.05;;;2.00;99.90;;;;;;5044312;28;20375;-44
2020/12/31 06:15:30;;;;;;;10.43;5.80;;;1.90;99.90;;;;;;5040416;28;20021;-44
2020/12/31 06:17:58;;;;;;;12.43;6.00;;;1.90;99.90;;;;;;5041358;28;21046;-44
2020/12/31 06:20:26;;;;;;;9.02;5.55;;;1.80;99.90;;;;;;5038290;28;20487;-46
2020/12/31 06:22:57;;;;;;;9.27;5.78;;;1.70;99.90;;;;;;5040580;28;20031;-47
2020/12/31 06:25:38;;;;;;;7.25;4.45;;;1.60;99.90;;;;;;5043707;28;20025;-44
2020/12/31 06:28:08;;;;;;;8.15;5.28;;;1.60;99.90;;;;;;5037697;28;20135;-42
2020/12/31 06:30:35;;;;;;;10.55;5.80;;;1.40;99.90;;;;;;5038857;28;20017;-45
2020/12/31 06:33:05;;;;;;;12.27;6.10;;;1.40;99.90;;;;;;5042909;28;20025;-48
2020/12/31 06:35:33;;;;;;;11.60;6.07;;;1.20;99.90;;;;;;5035547;28;20132;-45
2020/12/31 06:37:58;;;;;;;10.07;5.82;;;1.10;99.90;;;;;;5042880;28;20063;-48
2020/12/31 06:40:29;;;;;;;11.75;6.20;;;1.10;99.90;;;;;;5039382;28;20029;-45
2020/12/31 06:43:13;;;;;;;13.50;6.55;;;1.00;99.90;;;;;;5037056;28;20025;-44
2020/12/31 06:45:47;;;;;;;9.80;5.68;;;0.90;99.90;;;;;;5037124;28;20048;-44
2020/12/31 06:48:28;;;;;;;12.80;7.10;;;0.80;99.90;;;;;;5035268;28;20030;-47
2020/12/31 06:51:02;;;;;;;12.68;7.80;;;0.70;99.90;;;;;;5043533;28;20094;-42
2020/12/31 06:53:35;;;;;;;13.93;7.63;;;0.70;99.90;;;;;;5039099;28;20222;-45
2020/12/31 06:56:11;;;;;;;12.30;6.85;;;0.70;99.90;;;;;;5041579;28;20385;-45
2020/12/31 06:58:39;;;;;;;17.55;7.60;;;0.70;99.90;;;;;;5038707;28;20029;-46
2020/12/31 07:01:28;;;;;;;9.57;6.03;;;0.60;99.90;;;;;;5042147;28;20026;-44
2020/12/31 07:03:57;;;;;;;12.80;6.95;;;0.50;99.90;;;;;;5050420;28;20033;-46
2020/12/31 07:06:25;;;;;;;9.75;5.25;;;0.40;99.90;;;;;;5043928;28;20033;-44
2020/12/31 07:08:54;;;;;;;11.52;5.53;;;0.40;99.90;;;;;;5042819;28;20064;-43
2020/12/31 07:11:29;;;;;;;10.38;5.90;;;0.30;99.90;;;;;;5039890;28;20112;-45
2020/12/31 07:13:55;;;;;;;14.27;6.35;;;0.20;99.90;;;;;;5043731;28;20510;-42
2020/12/31 07:16:40;;;;;;;11.57;6.43;;;0.20;99.90;;;;;;5038797;28;20031;-43
2020/12/31 07:19:07;;;;;;;11.57;6.22;;;0.10;99.90;;;;;;5034424;28;20057;-45
2020/12/31 07:21:36;;;;;;;10.55;5.72;;;0.10;99.90;;;;;;5049874;28;20036;-44
2020/12/31 07:24:28;;;;;;;14.38;6.90;;;0.10;99.90;;;;;;5039418;28;20021;-46
2020/12/31 07:26:56;;;;;;;12.70;6.47;;;0.00;99.90;;;;;;5041970;28;20029;-46
2020/12/31 07:29:31;;;;;;;13.00;7.18;;;0.10;99.90;;;;;;5040667;28;20017;-47
2020/12/31 07:31:58;;;;;;;13.00;5.93;;;0.00;99.90;;;;;;5039770;28;20033;-47
2020/12/31 07:34:33;;;;;;;16.50;6.90;;;0.10;99.90;;;;;;5040804;28;20096;-50
2020/12/31 07:37:01;;;;;;;16.77;7.65;;;0.00;99.90;;;;;;5041282;28;20541;-49
2020/12/31 07:39:29;;;;;;;16.83;9.00;;;0.00;99.90;;;;;;5041421;28;20037;-47
2020/12/31 07:42:14;;;;;;;14.35;7.05;;;0.00;99.90;;;;;;5038524;28;20064;-47
2020/12/31 07:44:54;;;;;;;21.90;9.35;;;0.00;99.90;;;;;;5038279;28;20045;-44
2020/12/31 07:47:22;;;;;;;16.10;8.27;;;0.00;99.90;;;;;;5039601;28;20033;-47
2020/12/31 07:49:50;;;;;;;19.17;9.77;;;0.00;99.90;;;;;;5039592;28;20028;-46
2020/12/31 07:52:16;;;;;;;14.50;8.18;;;0.00;99.90;;;;;;5044872;28;20029;-46
2020/12/31 07:54:41;;;;;;;17.98;7.45;;;0.00;99.90;;;;;;5039939;28;20048;-47
2020/12/31 07:57:14;;;;;;;12.93;6.18;;;0.00;99.90;;;;;;5038235;28;20024;-46
2020/12/31 07:59:46;;;;;;;14.80;7.25;;;0.00;99.90;;;;;;5035107;28;20382;-48
2020/12/31 08:02:15;;;;;;;17.60;8.25;;;0.00;99.90;;;;;;5039120;28;20029;-48
2020/12/31 08:04:40;;;;;;;13.20;6.82;;;0.00;99.90;;;;;;5041215;28;20040;-50
2020/12/31 08:07:24;;;;;;;13.85;6.15;;;0.10;99.90;;;;;;5037748;28;20033;-49
2020/12/31 08:09:52;;;;;;;19.13;9.70;;;0.30;99.90;;;;;;5043180;28;20262;-47
2020/12/31 08:12:17;;;;;;;15.88;9.10;;;0.40;99.90;;;;;;5035179;28;20037;-47
2020/12/31 08:14:45;;;;;;;15.40;8.80;;;0.50;99.90;;;;;;5038365;28;20029;-49
2020/12/31 08:17:11;;;;;;;17.85;9.60;;;0.60;99.90;;;;;;5038554;28;20036;-49
2020/12/31 08:19:38;;;;;;;16.85;8.27;;;0.70;99.90;;;;;;5046435;28;20039;-48
2020/12/31 08:22:27;;;;;;;16.55;9.95;;;0.70;99.90;;;;;;5046289;28;20041;-51
2020/12/31 08:24:59;;;;;;;15.55;8.48;;;0.90;99.90;;;;;;5039647;28;20414;-51
2020/12/31 08:27:26;;;;;;;12.80;7.30;;;1.00;99.90;;;;;;5044390;28;20106;-51
2020/12/31 08:29:54;;;;;;;12.23;7.32;;;1.20;99.90;;;;;;5047436;28;20080;-46
2020/12/31 08:32:25;;;;;;;13.60;7.50;;;1.20;99.90;;;;;;5040313;28;20024;-44
2020/12/31 08:34:55;;;;;;;13.15;7.47;;;1.30;99.90;;;;;;5040963;28;20425;-44
2020/12/31 08:37:23;;;;;;;11.35;6.65;;;1.40;99.90;;;;;;5034912;28;20063;-50
2020/12/31 08:39:55;;;;;;;9.80;6.88;;;1.60;99.90;;;;;;5032725;28;20059;-46
2020/12/31 08:42:24;;;;;;;11.27;7.18;;;1.90;99.90;;;;;;5042150;28;20021;-44
2020/12/31 08:44:52;;;;;;;9.73;6.57;;;2.10;99.90;;;;;;5048716;28;20119;-46
2020/12/31 08:47:23;;;;;;;9.73;5.45;;;2.40;99.90;;;;;;5042298;28;20112;-45
2020/12/31 08:49:50;;;;;;;9.98;5.75;;;2.80;99.90;;;;;;5036786;28;20047;-47
2020/12/31 08:52:16;;;;;;;7.55;4.80;;;3.20;99.90;;;;;;5044368;28;20065;-50
2020/12/31 08:54:41;;;;;;;7.40;4.90;;;3.50;99.90;;;;;;5038062;28;20126;-49
2020/12/31 08:57:16;;;;;;;6.90;4.70;;;3.80;99.90;;;;;;5038083;28;20021;-48
2020/12/31 08:59:43;;;;;;;10.18;6.13;;;4.00;99.90;;;;;;5042138;28;20037;-49
2020/12/31 09:02:13;;;;;;;7.30;5.13;;;4.20;99.90;;;;;;5045886;28;20086;-46
2020/12/31 09:04:39;;;;;;;9.20;6.10;;;4.50;99.90;;;;;;5039150;28;20061;-45
2020/12/31 09:07:10;;;;;;;7.63;5.43;;;4.70;99.90;;;;;;5037653;28;20547;-45
2020/12/31 09:09:36;;;;;;;8.30;5.05;;;5.00;99.90;;;;;;5033079;28;20068;-45
2020/12/31 09:12:04;;;;;;;11.77;5.78;;;5.20;99.90;;;;;;5035481;28;20026;-51
2020/12/31 09:14:32;;;;;;;8.50;5.90;;;5.30;99.90;;;;;;5045948;28;20027;-47
2020/12/31 09:16:58;;;;;;;8.65;5.82;;;5.40;99.90;;;;;;5041137;28;20032;-46
2020/12/31 09:19:24;;;;;;;5.15;3.88;;;5.30;99.90;;;;;;5046110;28;20025;-45
2020/12/31 09:21:50;;;;;;;7.40;4.82;;;5.30;99.90;;;;;;5038242;28;20048;-48
2020/12/31 09:24:20;;;;;;;6.03;4.05;;;5.30;99.90;;;;;;5035868;28;20028;-45
2020/12/31 09:26:54;;;;;;;7.85;5.55;;;5.30;99.90;;;;;;5037521;28;20140;-50
2020/12/31 09:29:20;;;;;;;6.22;4.28;;;5.30;99.90;;;;;;5037138;28;20029;-47
2020/12/31 09:31:46;;;;;;;8.90;5.10;;;5.20;99.90;;;;;;5031965;28;20148;-44
2020/12/31 09:34:12;;;;;;;5.22;3.92;;;5.20;99.90;;;;;;5033374;28;20068;-48
2020/12/31 09:36:38;;;;;;;8.18;4.75;;;5.20;99.40;;;;;;5037807;28;20423;-45
2020/12/31 09:39:03;;;;;;;7.80;4.55;;;5.20;99.90;;;;;;5030666;28;20029;-45
2020/12/31 09:41:29;;;;;;;9.45;4.88;;;5.00;99.60;;;;;;5032299;28;20040;-51
2020/12/31 09:43:54;;;;;;;8.07;5.20;;;4.70;99.90;;;;;;5037348;28;20025;-48
2020/12/31 09:46:21;;;;;;;9.05;4.78;;;4.50;99.90;;;;;;5035123;28;21012;-49
2020/12/31 09:48:48;;;;;;;6.57;4.13;;;4.30;99.90;;;;;;5037907;28;20209;-49
2020/12/31 09:51:14;;;;;;;7.72;4.93;;;4.10;99.90;;;;;;5040002;28;20071;-46
2020/12/31 09:53:41;;;;;;;7.53;4.80;;;4.00;99.90;;;;;;5038491;28;20032;-47
2020/12/31 09:56:06;;;;;;;5.50;3.88;;;4.00;99.90;;;;;;5045441;28;20108;-47
2020/12/31 09:58:32;;;;;;;5.72;4.47;;;4.00;99.90;;;;;;5045178;28;20115;-47
2020/12/31 10:00:58;;;;;;;7.30;4.60;;;4.00;99.90;;;;;;5034188;28;20033;-44
2020/12/31 10:03:25;;;;;;;7.03;4.32;;;4.00;99.90;;;;;;5036182;28;20048;-45
2020/12/31 10:05:53;;;;;;;7.75;4.80;;;4.00;99.90;;;;;;5044436;28;20099;-46
2020/12/31 10:08:19;;;;;;;6.00;3.95;;;4.10;99.90;;;;;;5037449;28;20526;-50
2020/12/31 10:10:45;;;;;;;8.27;5.63;;;4.10;99.90;;;;;;5033978;28;20037;-47
2020/12/31 10:13:11;;;;;;;6.18;4.82;;;4.20;99.90;;;;;;5041874;28;20478;-45
2020/12/31 10:15:37;;;;;;;6.18;4.78;;;4.30;99.90;;;;;;5029698;28;20592;-50
2020/12/31 10:18:02;;;;;;;5.80;4.13;;;4.20;99.90;;;;;;5035860;28;20044;-45
2020/12/31 10:20:28;;;;;;;6.55;4.20;;;4.30;99.90;;;;;;5043059;28;20052;-47
2020/12/31 10:22:53;;;;;;;5.50;3.97;;;4.30;99.90;;;;;;5041765;28;20024;-45
2020/12/31 10:25:19;;;;;;;6.18;4.18;;;4.40;99.90;;;;;;5036880;28;20563;-46
2020/12/31 10:27:44;;;;;;;4.72;3.38;;;4.50;99.90;;;;;;5034139;28;20139;-45
2020/12/31 10:30:10;;;;;;;5.03;3.60;;;4.50;99.90;;;;;;5036845;28;20036;-45
2020/12/31 10:32:35;;;;;;;5.10;3.78;;;4.60;99.90;;;;;;5032515;28;20110;-46
2020/12/31 10:35:01;;;;;;;9.65;5.25;;;4.70;99.90;;;;;;5035100;28;20100;-49
2020/12/31 10:37:26;;;;;;;9.20;4.85;;;4.70;99.90;;;;;;5035286;28;20498;-50
2020/12/31 10:39:52;;;;;;;7.90;4.55;;;4.70;99.90;;;;;;5032214;28;20774;-45
2020/12/31 10:42:17;;;;;;;7.45;4.68;;;4.70;99.90;;;;;;5034870;28;20029;-48
2020/12/31 10:44:43;;;;;;;6.35;3.85;;;4.70;99.90;;;;;;5036812;28;20034;-48
2020/12/31 10:47:08;;;;;;;7.30;4.85;;;4.70;99.90;;;;;;5032988;28;20033;-46
2020/12/31 10:49:34;;;;;;;8.25;4.32;;;4.80;99.90;;;;;;5036337;28;20045;-44
2020/12/31 10:51:59;;;;;;;5.88;3.58;;;4.80;99.90;;;;;;5038304;28;20156;-46
2020/12/31 10:54:25;;;;;;;5.85;3.83;;;4.90;99.90;;;;;;5033006;28;20040;-46
2020/12/31 10:56:50;;;;;;;6.70;3.53;;;5.00;99.90;;;;;;5031859;28;20033;-47
2020/12/31 10:59:16;;;;;;;7.25;4.75;;;5.00;99.90;;;;;;5036635;28;20030;-46
2020/12/31 11:01:42;;;;;;;7.05;4.15;;;5.00;99.90;;;;;;5028769;28;20612;-46
2020/12/31 11:04:07;;;;;;;4.93;3.45;;;5.10;99.90;;;;;;5040136;28;20052;-47
2020/12/31 11:06:33;;;;;;;5.97;3.33;;;5.20;99.90;;;;;;5041333;28;20029;-48
2020/12/31 11:08:59;;;;;;;7.45;4.07;;;5.20;99.90;;;;;;5035290;28;20398;-47
2020/12/31 11:11:30;;;;;;;5.88;3.85;;;5.30;99.90;;;;;;5034452;28;20030;-47
2020/12/31 11:13:56;;;;;;;5.47;3.72;;;5.30;99.90;;;;;;5035417;28;20025;-46
2020/12/31 11:16:22;;;;;;;5.20;3.15;;;5.30;99.90;;;;;;5037949;28;20033;-49
2020/12/31 11:18:48;;;;;;;5.07;3.67;;;5.40;99.90;;;;;;5048967;28;20497;-47
2020/12/31 11:21:15;;;;;;;4.90;3.15;;;5.40;99.90;;;;;;5047670;28;20021;-45
2020/12/31 11:23:40;;;;;;;5.47;3.47;;;5.40;99.90;;;;;;5035684;28;20044;-47
2020/12/31 11:26:11;;;;;;;5.88;3.40;;;5.40;99.80;;;;;;5045031;28;20021;-46
2020/12/31 11:28:37;;;;;;;4.95;3.28;;;5.40;99.60;;;;;;5038206;28;20494;-45
2020/12/31 11:31:02;;;;;;;4.40;3.13;;;5.50;99.90;;;;;;5042134;28;20448;-44
2020/12/31 11:33:27;;;;;;;4.70;3.80;;;5.60;98.60;;;;;;5044033;28;20052;-48
2020/12/31 11:35:53;;;;;;;4.40;3.50;;;5.70;98.30;;;;;;5038327;28;20033;-45
2020/12/31 11:38:18;;;;;;;4.85;3.72;;;5.70;98.00;;;;;;5039257;28;20037;-46
2020/12/31 11:40:44;;;;;;;5.32;3.13;;;5.70;97.80;;;;;;5039805;28;20504;-45
2020/12/31 11:43:10;;;;;;;6.30;3.88;;;5.70;97.60;;;;;;5037826;28;20045;-44
2020/12/31 11:45:35;;;;;;;6.75;4.95;;;5.60;97.30;;;;;;5042443;28;20486;-49
2020/12/31 11:48:01;;;;;;;10.65;4.38;;;5.50;97.10;;;;;;5038506;28;20116;-48
2020/12/31 11:50:26;;;;;;;7.75;4.20;;;5.30;95.70;;;;;;5069767;28;20059;-45
2020/12/31 11:52:52;;;;;;;6.07;4.00;;;5.20;95.90;;;;;;5036812;28;20060;-45
2020/12/31 11:55:18;;;;;;;8.20;4.57;;;5.00;96.10;;;;;;5037507;28;20096;-45
2020/12/31 11:57:43;;;;;;;6.50;4.18;;;4.90;97.20;;;;;;5036735;28;20393;-46
2020/12/31 12:00:09;;;;;;;6.72;3.80;;;4.80;97.40;;;;;;5036413;28;20034;-45
2020/12/31 12:02:35;;;;;;;5.80;3.45;;;4.80;97.90;;;;;;5040806;28;20486;-46
2020/12/31 12:05:00;;;;;;;5.38;3.78;;;4.70;98.20;;;;;;5035575;28;20041;-45
2020/12/31 12:07:26;;;;;;;4.32;3.10;;;4.70;98.70;;;;;;5036807;28;20417;-46
2020/12/31 12:09:51;;;;;;;6.05;3.78;;;4.70;99.10;;;;;;5041509;28;20595;-45
2020/12/31 12:12:17;;;;;;;6.10;3.25;;;4.70;99.20;;;;;;5039496;28;20545;-46
2020/12/31 12:14:42;;;;;;;5.38;3.70;;;4.70;98.90;;;;;;5038315;28;20033;-44
2020/12/31 12:17:08;;;;;;;6.93;4.45;;;4.60;99.10;;;;;;5036762;28;20057;-45
2020/12/31 12:19:33;;;;;;;6.80;3.63;;;4.60;98.70;;;;;;5039692;28;20029;-44
2020/12/31 12:22:00;;;;;;;6.85;4.10;;;4.60;99.00;;;;;;5037319;28;20033;-46
2020/12/31 12:24:27;;;;;;;5.85;3.88;;;4.60;99.30;;;;;;5043179;28;20065;-45
2020/12/31 12:26:52;;;;;;;7.05;3.60;;;4.50;99.40;;;;;;5037701;28;20108;-47
2020/12/31 12:29:18;;;;;;;6.82;4.50;;;4.60;99.50;;;;;;5038767;28;20116;-45
2020/12/31 12:31:43;;;;;;;5.32;3.60;;;4.60;99.10;;;;;;5033190;28;20038;-44
2020/12/31 12:34:09;;;;;;;6.38;4.22;;;4.60;99.00;;;;;;5032549;28;20028;-45
2020/12/31 12:36:35;;;;;;;6.65;4.20;;;4.60;98.90;;;;;;5033778;28;20040;-46
2020/12/31 12:39:01;;;;;;;6.13;3.72;;;4.60;98.10;;;;;;5036696;28;20109;-45
2020/12/31 12:41:26;;;;;;;7.85;4.22;;;4.60;98.50;;;;;;5036744;28;20486;-46
2020/12/31 12:43:52;;;;;;;7.78;4.72;;;4.50;98.70;;;;;;5031873;28;20036;-50
2020/12/31 12:46:19;;;;;;;7.30;4.60;;;4.50;98.70;;;;;;5039042;28;20434;-46
2020/12/31 12:48:45;;;;;;;7.03;4.68;;;4.50;98.20;;;;;;5041142;28;20040;-45
2020/12/31 12:51:11;;;;;;;9.85;5.95;;;4.50;98.20;;;;;;5038824;28;20141;-49
2020/12/31 12:53:37;;;;;;;6.50;4.57;;;4.50;97.80;;;;;;5041584;28;20037;-46
2020/12/31 12:56:04;;;;;;;6.05;4.00;;;4.50;98.00;;;;;;5037338;28;20584;-44
2020/12/31 12:58:30;;;;;;;4.05;3.25;;;4.50;98.30;;;;;;5041510;28;20036;-43